createdAt,value
2023-03-06T00:00:55.236Z,76.00
2023-03-06T00:03:26.033Z,75.70
2023-03-06T00:05:55.549Z,75.50
2023-03-06T00:08:23.728Z,74.90
2023-03-06T00:10:51.592Z,75.00
2023-03-06T00:13:21.312Z,75.50
2023-03-06T00:15:49.747Z,75.80
2023-03-06T00:18:17.676Z,75.90
2023-03-06T00:20:46.822Z,75.80
2023-03-06T00:23:14.758Z,76.10
2023-03-06T00:25:44.065Z,76.60
2023-03-06T00:28:14.787Z,77.10
2023-03-06T00:30:43.488Z,77.30
2023-03-06T00:33:11.940Z,77.40
2023-03-06T00:35:40.102Z,77.70
2023-03-06T00:38:09.392Z,77.50
2023-03-06T00:40:37.178Z,77.50
2023-03-06T00:43:05.019Z,77.50
2023-03-06T00:45:32.900Z,77.20
2023-03-06T00:48:00.739Z,77.00
2023-03-06T00:50:28.661Z,76.10
2023-03-06T00:52:56.589Z,75.40
2023-03-06T00:55:25.761Z,75.10
2023-03-06T00:57:53.548Z,75.20
2023-03-06T01:00:21.588Z,75.40
2023-03-06T01:02:49.389Z,75.10
2023-03-06T01:05:17.382Z,74.90
2023-03-06T01:07:45.189Z,74.40
2023-03-06T01:10:13.385Z,74.80
2023-03-06T01:12:42.737Z,74.60
2023-03-06T01:15:12.154Z,75.00
2023-03-06T01:17:40.224Z,75.30
2023-03-06T01:20:09.063Z,75.20
2023-03-06T01:22:36.897Z,75.10
2023-03-06T01:25:05.026Z,74.10
2023-03-06T01:27:32.834Z,73.90
2023-03-06T01:30:02.110Z,74.90
2023-03-06T01:32:30.631Z,76.60
2023-03-06T01:34:58.668Z,77.30
2023-03-06T01:37:26.616Z,77.90
2023-03-06T01:39:54.416Z,78.00
2023-03-06T01:42:22.280Z,78.30
2023-03-06T01:45:02.713Z,78.50
2023-03-06T01:47:30.706Z,79.00
2023-03-06T01:49:59.947Z,79.70
2023-03-06T01:52:31.605Z,79.70
2023-03-06T01:55:02.486Z,79.60
2023-03-06T01:57:33.555Z,79.70
2023-03-06T02:00:06.615Z,80.10
2023-03-06T02:02:34.839Z,80.40
2023-03-06T02:05:06.684Z,80.70
2023-03-06T02:07:35.959Z,80.50
2023-03-06T02:10:04.129Z,80.00
2023-03-06T02:12:32.220Z,79.80
2023-03-06T02:15:00.304Z,79.60
2023-03-06T02:17:30.453Z,79.60
2023-03-06T02:20:03.979Z,79.70
2023-03-06T02:22:40.104Z,79.60
2023-03-06T02:25:13.050Z,79.10
2023-03-06T02:27:42.534Z,80.50
2023-03-06T02:30:13.300Z,80.90
2023-03-06T02:32:41.127Z,81.10
2023-03-06T02:35:19.362Z,80.70
2023-03-06T02:37:48.031Z,80.30
2023-03-06T02:40:18.515Z,80.30
2023-03-06T02:42:50.186Z,80.10
2023-03-06T02:45:22.977Z,80.20
2023-03-06T02:47:50.825Z,80.30
2023-03-06T02:50:18.977Z,80.40
2023-03-06T02:52:46.789Z,80.30
2023-03-06T02:55:14.631Z,80.30
2023-03-06T02:57:42.497Z,80.50
2023-03-06T03:00:14.160Z,80.60
2023-03-06T03:02:42.446Z,80.20
2023-03-06T03:05:10.731Z,79.80
2023-03-06T03:07:38.558Z,79.70
2023-03-06T03:10:07.501Z,79.50
2023-03-06T03:12:35.314Z,79.60
2023-03-06T03:15:03.117Z,79.70
2023-03-06T03:17:32.326Z,79.90
2023-03-06T03:20:00.299Z,80.20
2023-03-06T03:22:28.124Z,80.20
2023-03-06T03:24:55.947Z,80.40
2023-03-06T03:27:23.910Z,80.60
2023-03-06T03:29:51.736Z,80.80
2023-03-06T03:32:19.652Z,81.20
2023-03-06T03:34:48.829Z,81.10
2023-03-06T03:37:16.853Z,81.40
2023-03-06T03:39:44.665Z,81.40
2023-03-06T03:42:12.521Z,81.60
2023-03-06T03:44:40.342Z,81.10
2023-03-06T03:47:08.321Z,81.30
2023-03-06T03:49:36.149Z,81.20
2023-03-06T03:52:05.833Z,81.00
2023-03-06T03:54:33.685Z,80.90
2023-03-06T03:57:01.768Z,80.70
2023-03-06T03:59:29.679Z,80.30
2023-03-06T04:01:57.699Z,80.10
2023-03-06T04:04:25.803Z,80.50
2023-03-06T04:06:53.763Z,80.20
2023-03-06T04:09:23.273Z,79.90
2023-03-06T04:11:51.054Z,79.10
2023-03-06T04:14:18.909Z,78.50
2023-03-06T04:16:46.696Z,77.30
2023-03-06T04:19:14.496Z,77.10
2023-03-06T04:21:42.388Z,76.70
2023-03-06T04:24:10.206Z,76.50
2023-03-06T04:26:39.350Z,76.00
2023-03-06T04:29:07.189Z,76.30
2023-03-06T04:31:35.145Z,76.60
2023-03-06T04:34:02.981Z,76.70
2023-03-06T04:36:32.730Z,76.70
2023-03-06T04:39:01.554Z,76.80
2023-03-06T04:41:29.796Z,77.10
2023-03-06T04:43:59.096Z,77.30
2023-03-06T04:46:27.225Z,77.40
2023-03-06T04:48:55.017Z,77.40
2023-03-06T04:51:22.911Z,77.40
2023-03-06T04:53:50.822Z,77.40
2023-03-06T04:56:18.963Z,77.50
2023-03-06T04:58:46.835Z,77.30
2023-03-06T05:01:16.057Z,77.40
2023-03-06T05:03:43.887Z,77.40
2023-03-06T05:06:11.721Z,77.50
2023-03-06T05:08:39.642Z,77.70
2023-03-06T05:11:07.491Z,77.90
2023-03-06T05:13:35.313Z,77.90
2023-03-06T05:16:04.040Z,78.00
2023-03-06T05:18:34.048Z,77.90
2023-03-06T05:21:02.260Z,78.10
2023-03-06T05:23:31.616Z,78.10
2023-03-06T05:25:59.846Z,78.40
2023-03-06T05:28:28.647Z,78.30
2023-03-06T05:30:56.793Z,78.30
2023-03-06T05:33:24.673Z,78.00
2023-03-06T05:35:53.857Z,78.30
2023-03-06T05:38:23.085Z,78.20
2023-03-06T05:40:50.893Z,78.10
2023-03-06T05:43:18.990Z,78.20
2023-03-06T05:45:46.806Z,77.90
2023-03-06T05:48:14.685Z,77.90
2023-03-06T05:50:42.477Z,77.90
2023-03-06T05:53:12.066Z,77.90
2023-03-06T05:55:39.948Z,79.00
2023-03-06T05:58:07.734Z,77.70
2023-03-06T06:00:35.585Z,77.50
2023-03-06T06:03:03.420Z,77.70
2023-03-06T06:05:31.247Z,77.80
2023-03-06T06:07:59.047Z,78.00
2023-03-06T06:10:28.168Z,78.20
2023-03-06T06:12:56.011Z,78.20
2023-03-06T06:15:24.003Z,78.10
2023-03-06T06:17:51.811Z,78.10
2023-03-06T06:20:20.235Z,78.30
2023-03-06T06:22:48.138Z,78.80
2023-03-06T06:25:16.421Z,78.70
2023-03-06T06:27:45.548Z,78.80
2023-03-06T06:30:14.274Z,78.70
2023-03-06T06:32:42.210Z,78.70
2023-03-06T06:35:10.610Z,78.50
2023-03-06T06:37:38.496Z,78.50
2023-03-06T06:40:07.377Z,78.40
2023-03-06T06:42:39.875Z,78.20
2023-03-06T06:45:11.222Z,78.20
2023-03-06T06:47:41.275Z,78.30
2023-03-06T06:50:13.451Z,78.10
2023-03-06T06:52:41.301Z,78.20
2023-03-06T06:55:09.882Z,77.90
2023-03-06T06:57:37.651Z,78.20
2023-03-06T07:00:06.609Z,78.30
2023-03-06T07:02:35.747Z,78.40
2023-03-06T07:05:05.508Z,78.50
2023-03-06T07:07:36.471Z,78.70
2023-03-06T07:10:05.793Z,79.00
2023-03-06T07:12:35.017Z,79.50
2023-03-06T07:15:03.130Z,79.80
2023-03-06T07:17:31.013Z,80.00
2023-03-06T07:20:00.561Z,79.90
2023-03-06T07:22:31.952Z,80.20
2023-03-06T07:25:04.527Z,80.70
2023-03-06T07:27:32.724Z,81.00
2023-03-06T07:30:00.639Z,81.20
2023-03-06T07:32:28.511Z,81.10
2023-03-06T07:35:12.950Z,81.80
2023-03-06T07:37:45.536Z,82.00
2023-03-06T07:40:13.681Z,82.20
2023-03-06T07:42:41.481Z,82.40
2023-03-06T07:45:10.358Z,82.50
2023-03-06T07:47:38.145Z,82.40
2023-03-06T07:50:07.268Z,82.30
2023-03-06T07:52:35.570Z,82.70
2023-03-06T07:55:05.550Z,82.40
2023-03-06T07:57:33.402Z,82.30
2023-03-06T08:00:01.230Z,82.30
2023-03-06T08:02:29.033Z,82.70
2023-03-06T08:04:57.285Z,82.40
2023-03-06T08:07:25.366Z,82.50
2023-03-06T08:09:53.224Z,81.80
2023-03-06T08:12:22.358Z,82.10
2023-03-06T08:14:50.150Z,81.70
2023-03-06T08:17:18.019Z,81.10
2023-03-06T08:19:45.870Z,81.10
2023-03-06T08:22:13.965Z,80.40
2023-03-06T08:24:42.418Z,80.90
2023-03-06T08:27:10.222Z,81.40
2023-03-06T08:29:39.381Z,80.60
2023-03-06T08:32:07.624Z,79.80
2023-03-06T08:34:35.456Z,79.90
2023-03-06T08:37:03.269Z,79.50
2023-03-06T08:39:31.092Z,78.80
2023-03-06T08:41:58.868Z,78.80
2023-03-06T08:44:26.659Z,78.70
2023-03-06T08:46:55.779Z,78.80
2023-03-06T08:49:23.589Z,78.70
2023-03-06T08:51:51.382Z,78.70
2023-03-06T08:54:19.205Z,77.10
2023-03-06T08:56:47.202Z,77.20
2023-03-06T08:59:15.278Z,76.70
2023-03-06T09:01:43.198Z,77.30
2023-03-06T09:04:12.656Z,77.40
2023-03-06T09:06:43.042Z,77.10
2023-03-06T09:09:11.212Z,76.40
2023-03-06T09:11:39.356Z,77.40
2023-03-06T09:14:07.493Z,76.70
2023-03-06T09:16:35.405Z,76.60
2023-03-06T09:19:03.250Z,77.00
2023-03-06T09:21:32.484Z,77.50
2023-03-06T09:24:00.765Z,77.30
2023-03-06T09:26:43.468Z,77.90
2023-03-06T09:29:13.179Z,77.60
2023-03-06T09:31:41.039Z,77.50
2023-03-06T09:34:08.873Z,76.90
2023-03-06T09:36:53.732Z,76.30
2023-03-06T09:39:24.018Z,76.30
2023-03-06T09:41:52.637Z,77.00
2023-03-06T09:44:23.866Z,77.10
2023-03-06T09:47:25.658Z,77.10
2023-03-06T09:50:17.993Z,77.10
2023-03-06T09:52:56.009Z,77.20
2023-03-06T09:55:27.108Z,77.20
2023-03-06T09:58:00.076Z,75.90
2023-03-06T10:00:32.256Z,76.00
2023-03-06T10:03:13.259Z,76.00
2023-03-06T10:05:45.339Z,75.20
2023-03-06T10:08:24.220Z,73.60
2023-03-06T10:10:58.904Z,74.50
2023-03-06T10:13:33.650Z,73.30
2023-03-06T10:16:11.060Z,72.40
2023-03-06T10:18:39.941Z,72.50
2023-03-06T10:21:23.853Z,69.80
2023-03-06T10:23:56.298Z,71.00
2023-03-06T10:26:26.436Z,70.50
2023-03-06T10:29:06.296Z,71.10
2023-03-06T10:31:35.400Z,71.60
2023-03-06T10:34:15.277Z,69.90
2023-03-06T10:36:43.066Z,70.30
2023-03-06T10:39:17.178Z,69.90
2023-03-06T10:41:46.322Z,70.30
2023-03-06T10:44:25.115Z,68.90
2023-03-06T10:46:56.084Z,67.40
2023-03-06T10:49:27.807Z,68.50
2023-03-06T10:51:58.343Z,68.60
2023-03-06T10:54:28.550Z,67.70
2023-03-06T10:56:56.381Z,67.80
2023-03-06T10:59:26.488Z,66.40
2023-03-06T11:01:56.746Z,66.60
2023-03-06T11:04:28.363Z,66.00
2023-03-06T11:07:09.047Z,65.00
2023-03-06T11:09:38.228Z,63.40
2023-03-06T11:12:26.347Z,64.30
2023-03-06T11:15:18.231Z,63.60
2023-03-06T11:17:51.947Z,65.40
2023-03-06T11:20:22.119Z,65.40
2023-03-06T11:22:52.965Z,65.50
2023-03-06T11:25:25.770Z,65.60
2023-03-06T11:27:58.673Z,65.40
2023-03-06T11:30:33.321Z,64.40
2023-03-06T11:33:04.723Z,64.40
2023-03-06T11:35:40.317Z,65.40
2023-03-06T11:38:16.136Z,63.70
2023-03-06T11:40:52.375Z,64.30
2023-03-06T11:43:24.307Z,64.30
2023-03-06T11:45:58.952Z,63.80
2023-03-06T11:48:29.526Z,64.90
2023-03-06T11:51:06.484Z,64.00
2023-03-06T11:53:36.570Z,63.50
2023-03-06T11:56:20.279Z,64.00
2023-03-06T11:59:29.920Z,64.60
2023-03-06T12:02:06.872Z,65.10
2023-03-06T12:04:47.460Z,64.40
2023-03-06T12:07:25.468Z,63.90
2023-03-06T12:09:57.746Z,63.40
2023-03-06T12:12:55.425Z,64.30
2023-03-06T12:15:41.424Z,62.60
2023-03-06T12:18:25.108Z,62.40
2023-03-06T12:21:02.770Z,61.80
2023-03-06T12:23:54.916Z,61.50
2023-03-06T12:26:39.274Z,61.00
2023-03-06T12:29:19.799Z,61.90
2023-03-06T12:31:56.503Z,62.30
2023-03-06T12:34:35.288Z,61.30
2023-03-06T12:37:15.937Z,60.60
2023-03-06T12:39:55.885Z,59.90
2023-03-06T12:42:43.332Z,60.70
2023-03-06T12:45:22.871Z,60.40
2023-03-06T12:47:55.388Z,58.70
2023-03-06T12:50:26.492Z,59.70
2023-03-06T12:52:56.977Z,58.60
2023-03-06T12:55:26.030Z,58.20
2023-03-06T12:57:54.091Z,57.70
2023-03-06T13:01:04.169Z,58.50
2023-03-06T13:03:39.353Z,58.40
2023-03-06T13:06:20.593Z,57.70
2023-03-06T13:09:12.459Z,58.40
2023-03-06T13:11:59.326Z,56.80
2023-03-06T13:14:32.096Z,56.30
2023-03-06T13:17:29.189Z,56.10
2023-03-06T13:20:26.084Z,56.40
2023-03-06T13:22:53.992Z,56.70
2023-03-06T13:25:38.372Z,57.10
2023-03-06T13:28:24.069Z,57.20
2023-03-06T13:30:53.069Z,56.30
2023-03-06T13:33:53.377Z,56.40
2023-03-06T13:36:24.976Z,56.40
2023-03-06T13:39:04.836Z,56.00
2023-03-06T13:41:54.275Z,56.10
2023-03-06T13:44:52.290Z,55.70
2023-03-06T13:48:05.791Z,56.80
2023-03-06T13:50:37.234Z,56.10
2023-03-06T13:53:40.648Z,54.90
2023-03-06T13:56:24.413Z,54.50
2023-03-06T13:59:14.214Z,54.00
2023-03-06T14:01:49.823Z,53.70
2023-03-06T14:04:33.364Z,54.70
2023-03-06T14:07:20.966Z,54.80
2023-03-06T14:09:54.239Z,54.40
2023-03-06T14:12:25.908Z,54.90
2023-03-06T14:14:57.186Z,55.50
2023-03-06T14:17:29.815Z,55.50
2023-03-06T14:20:00.965Z,55.00
2023-03-06T14:22:30.090Z,55.80
2023-03-06T14:25:01.459Z,55.50
2023-03-06T14:27:40.471Z,55.30
2023-03-06T14:30:12.707Z,54.90
2023-03-06T14:32:41.677Z,54.50
2023-03-06T14:35:25.597Z,55.10
2023-03-06T14:37:58.499Z,55.70
2023-03-06T14:40:31.363Z,55.80
2023-03-06T14:43:20.531Z,56.10
2023-03-06T14:45:52.862Z,57.20
2023-03-06T14:48:20.922Z,57.70
2023-03-06T14:50:53.753Z,56.60
2023-03-06T14:53:26.702Z,56.30
2023-03-06T14:55:57.892Z,56.90
2023-03-06T14:58:35.461Z,56.50
2023-03-06T15:01:06.683Z,56.20
2023-03-06T15:03:44.781Z,57.60
2023-03-06T15:06:17.784Z,57.60
2023-03-06T15:09:01.463Z,58.30
2023-03-06T15:11:54.062Z,57.50
2023-03-06T15:14:28.378Z,59.00
2023-03-06T15:16:56.232Z,58.60
2023-03-06T15:19:24.269Z,58.50
2023-03-06T15:21:53.331Z,59.60
2023-03-06T15:24:35.446Z,59.80
2023-03-06T15:27:05.682Z,59.80
2023-03-06T15:29:34.695Z,60.40
2023-03-06T15:32:28.481Z,59.90
2023-03-06T15:35:27.198Z,60.70
2023-03-06T15:37:55.158Z,61.10
2023-03-06T15:40:26.842Z,61.40
2023-03-06T15:42:54.788Z,61.80
2023-03-06T15:45:24.052Z,62.20
2023-03-06T15:47:54.206Z,62.50
2023-03-06T15:50:24.551Z,63.60
2023-03-06T15:52:52.804Z,63.10
2023-03-06T15:55:22.938Z,64.00
2023-03-06T15:57:55.135Z,64.30
2023-03-06T16:00:30.047Z,64.20
2023-03-06T16:02:58.517Z,64.30
2023-03-06T16:05:27.912Z,64.20
2023-03-06T16:07:56.036Z,65.00
2023-03-06T16:10:25.944Z,65.30
2023-03-06T16:12:57.881Z,64.90
2023-03-06T16:15:28.888Z,65.70
2023-03-06T16:17:56.778Z,65.80
2023-03-06T16:20:26.617Z,66.00
2023-03-06T16:22:54.836Z,66.10
2023-03-06T16:25:24.188Z,66.40
2023-03-06T16:27:55.465Z,66.50
2023-03-06T16:30:26.244Z,66.60
2023-03-06T16:32:54.049Z,67.00
2023-03-06T16:35:22.449Z,67.30
2023-03-06T16:37:50.459Z,67.20
2023-03-06T16:40:22.134Z,67.20
2023-03-06T16:42:51.687Z,68.00
2023-03-06T16:45:22.069Z,68.30
2023-03-06T16:47:51.437Z,68.50
2023-03-06T16:50:25.627Z,68.40
2023-03-06T16:52:55.007Z,68.70
2023-03-06T16:55:24.122Z,69.10
2023-03-06T16:57:52.425Z,68.90
2023-03-06T17:00:21.986Z,68.60
2023-03-06T17:02:52.271Z,68.90
2023-03-06T17:05:20.570Z,68.90
2023-03-06T17:07:50.276Z,69.00
2023-03-06T17:10:22.580Z,69.90
2023-03-06T17:12:50.611Z,70.70
2023-03-06T17:15:18.721Z,71.80
2023-03-06T17:17:46.549Z,71.80
2023-03-06T17:20:16.590Z,72.10
2023-03-06T17:22:44.413Z,73.00
2023-03-06T17:25:12.550Z,72.80
2023-03-06T17:27:40.408Z,73.40
2023-03-06T17:30:09.827Z,73.80
2023-03-06T17:32:40.812Z,74.10
2023-03-06T17:35:10.138Z,73.80
2023-03-06T17:37:39.385Z,73.60
2023-03-06T17:40:09.738Z,73.60
2023-03-06T17:42:37.767Z,73.80
2023-03-06T17:45:09.119Z,74.00
2023-03-06T17:47:37.064Z,74.20
2023-03-06T17:50:05.695Z,74.30
2023-03-06T17:52:33.741Z,74.50
2023-03-06T17:55:02.910Z,74.40
2023-03-06T17:57:30.709Z,74.30
2023-03-06T17:59:59.082Z,74.50
2023-03-06T18:02:26.925Z,74.60
2023-03-06T18:04:57.491Z,74.70
2023-03-06T18:07:26.549Z,74.90
2023-03-06T18:09:56.506Z,74.90
2023-03-06T18:12:25.694Z,74.70
2023-03-06T18:14:53.638Z,74.90
2023-03-06T18:17:21.452Z,75.10
2023-03-06T18:19:49.274Z,74.80
2023-03-06T18:22:17.099Z,75.20
2023-03-06T18:24:44.887Z,75.40
2023-03-06T18:27:12.678Z,75.30
2023-03-06T18:29:42.100Z,75.50
2023-03-06T18:32:10.739Z,75.40
2023-03-06T18:34:38.621Z,75.60
2023-03-06T18:37:06.846Z,75.50
2023-03-06T18:39:34.754Z,75.60
2023-03-06T18:42:03.111Z,75.80
2023-03-06T18:44:31.046Z,75.70
2023-03-06T18:47:00.200Z,75.80
2023-03-06T18:49:28.521Z,75.60
2023-03-06T18:51:56.349Z,75.90
2023-03-06T18:54:25.285Z,75.90
2023-03-06T18:56:53.099Z,76.00
2023-03-06T18:59:21.009Z,75.90
2023-03-06T19:01:49.150Z,75.90
2023-03-06T19:04:18.424Z,76.00
2023-03-06T19:06:46.405Z,76.00
2023-03-06T19:09:14.273Z,76.10
2023-03-06T19:11:42.725Z,76.20
2023-03-06T19:14:10.781Z,76.10
2023-03-06T19:16:38.715Z,76.40
2023-03-06T19:19:06.550Z,76.30
2023-03-06T19:21:35.722Z,75.90
2023-03-06T19:24:03.848Z,76.20
2023-03-06T19:26:31.656Z,76.10
2023-03-06T19:28:59.694Z,76.10
2023-03-06T19:31:28.751Z,75.70
2023-03-06T19:33:57.740Z,75.90
2023-03-06T19:36:28.881Z,75.80
2023-03-06T19:38:59.345Z,75.80
2023-03-06T19:41:27.382Z,75.90
2023-03-06T19:43:58.336Z,75.90
2023-03-06T19:46:27.304Z,75.90
2023-03-06T19:48:57.115Z,75.80
2023-03-06T19:51:25.207Z,75.80
2023-03-06T19:53:53.393Z,75.60
2023-03-06T19:56:26.010Z,75.70
2023-03-06T19:58:54.183Z,75.60
2023-03-06T20:01:24.769Z,75.50
2023-03-06T20:03:58.603Z,75.50
2023-03-06T20:06:28.461Z,75.70
2023-03-06T20:08:56.576Z,75.80
2023-03-06T20:11:29.709Z,75.90
2023-03-06T20:13:59.526Z,76.10
2023-03-06T20:16:28.770Z,75.90
2023-03-06T20:18:58.830Z,75.80
2023-03-06T20:21:27.454Z,75.90
2023-03-06T20:23:56.979Z,76.10
2023-03-06T20:26:27.359Z,76.20
2023-03-06T20:28:55.372Z,76.20
2023-03-06T20:31:25.232Z,76.40
2023-03-06T20:33:54.549Z,76.30
2023-03-06T20:36:24.056Z,76.40
2023-03-06T20:38:52.225Z,76.70
2023-03-06T20:41:22.264Z,76.50
2023-03-06T20:43:51.874Z,76.50
2023-03-06T20:46:21.484Z,76.80
2023-03-06T20:48:50.672Z,76.50
2023-03-06T20:51:20.495Z,76.40
2023-03-06T20:53:49.906Z,76.40
2023-03-06T20:56:20.253Z,76.70
2023-03-06T20:58:48.401Z,76.70
2023-03-06T21:01:21.485Z,76.80
2023-03-06T21:03:49.664Z,77.00
2023-03-06T21:06:18.218Z,76.90
2023-03-06T21:08:46.282Z,76.90
2023-03-06T21:11:14.543Z,77.00
2023-03-06T21:13:42.401Z,76.80
2023-03-06T21:16:12.893Z,76.80
2023-03-06T21:18:42.269Z,77.00
2023-03-06T21:21:11.518Z,76.90
2023-03-06T21:23:39.568Z,76.80
2023-03-06T21:26:07.917Z,76.80
2023-03-06T21:28:35.729Z,76.90
2023-03-06T21:31:06.708Z,76.90
2023-03-06T21:33:34.679Z,77.00
2023-03-06T21:36:04.376Z,77.20
2023-03-06T21:38:32.629Z,77.40
2023-03-06T21:41:08.085Z,77.40
2023-03-06T21:43:35.880Z,77.40
2023-03-06T21:46:04.335Z,77.40
2023-03-06T21:48:32.242Z,77.40
2023-03-06T21:51:10.503Z,77.40
2023-03-06T21:53:42.726Z,77.40
2023-03-06T21:56:10.975Z,77.30
2023-03-06T21:58:39.285Z,77.40
2023-03-06T22:01:10.681Z,77.20
2023-03-06T22:03:38.964Z,77.10
2023-03-06T22:06:12.529Z,77.10
2023-03-06T22:08:40.760Z,77.10
2023-03-06T22:11:09.936Z,76.60
2023-03-06T22:13:38.450Z,76.40
2023-03-06T22:16:07.532Z,76.40
2023-03-06T22:18:36.007Z,76.30
2023-03-06T22:21:08.242Z,76.30
2023-03-06T22:23:37.623Z,76.30
2023-03-06T22:26:07.092Z,76.30
2023-03-06T22:28:35.434Z,76.20
2023-03-06T22:31:08.615Z,76.30
2023-03-06T22:33:37.116Z,76.20
2023-03-06T22:36:07.888Z,76.20
2023-03-06T22:38:39.140Z,76.30
2023-03-06T22:41:07.517Z,76.40
2023-03-06T22:43:35.783Z,76.40
2023-03-06T22:46:04.276Z,76.10
2023-03-06T22:48:32.566Z,76.10
2023-03-06T22:51:04.383Z,75.90
2023-03-06T22:53:32.866Z,76.10
2023-03-06T22:56:02.850Z,75.20
2023-03-06T22:58:34.381Z,75.00
2023-03-06T23:01:08.686Z,74.50
2023-03-06T23:03:37.637Z,73.70
2023-03-06T23:06:14.241Z,72.80
2023-03-06T23:08:42.970Z,72.20
2023-03-06T23:11:14.796Z,71.50
2023-03-06T23:13:42.732Z,71.40
2023-03-06T23:16:10.959Z,71.80
2023-03-06T23:18:40.012Z,71.50
2023-03-06T23:21:09.123Z,71.30
2023-03-06T23:23:36.992Z,71.20
2023-03-06T23:26:05.522Z,71.70
2023-03-06T23:28:34.810Z,72.20
2023-03-06T23:31:07.877Z,72.30
2023-03-06T23:33:35.808Z,72.40
2023-03-06T23:36:04.221Z,72.60
2023-03-06T23:38:32.034Z,72.70
2023-03-06T23:41:03.015Z,72.90
2023-03-06T23:43:30.876Z,73.30
2023-03-06T23:46:00.736Z,73.40
2023-03-06T23:48:29.018Z,73.50
2023-03-06T23:50:57.131Z,73.40
2023-03-06T23:53:25.034Z,73.00
2023-03-06T23:55:52.942Z,73.50
2023-03-06T23:58:20.949Z,73.20
